createdAt,value
2019-04-10T00:01:15.293Z,23.13
2019-04-10T00:03:46.237Z,24.10
2019-04-10T00:06:18.164Z,22.73
2019-04-10T00:08:48.614Z,23.27
2019-04-10T00:11:18.592Z,23.47
2019-04-10T00:13:49.058Z,22.67
2019-04-10T00:16:20.912Z,23.93
2019-04-10T00:18:51.317Z,24.87
2019-04-10T00:21:21.631Z,24.23
2019-04-10T00:23:51.359Z,25.10
2019-04-10T00:26:21.682Z,24.07
2019-04-10T00:28:51.905Z,25.33
2019-04-10T00:31:22.996Z,25.07
2019-04-10T00:33:53.755Z,25.20
2019-04-10T00:36:24.767Z,23.60
2019-04-10T00:38:55.910Z,23.37
2019-04-10T00:41:26.344Z,24.30
2019-04-10T00:43:57.355Z,26.33
2019-04-10T00:46:28.332Z,23.43
2019-04-10T00:48:58.774Z,25.23
2019-04-10T00:51:28.512Z,24.80
2019-04-10T00:53:59.348Z,23.77
2019-04-10T00:56:29.836Z,24.37
2019-04-10T00:58:59.665Z,22.93
2019-04-10T01:01:29.903Z,25.77
2019-04-10T01:04:00.304Z,23.53
2019-04-10T01:06:30.627Z,23.63
2019-04-10T01:09:01.363Z,24.43
2019-04-10T01:11:32.666Z,23.23
2019-04-10T01:14:02.582Z,22.70
2019-04-10T01:16:32.159Z,22.87
2019-04-10T01:19:01.911Z,21.67
2019-04-10T01:21:32.510Z,22.73
2019-04-10T01:24:03.609Z,22.40
2019-04-10T01:26:34.976Z,21.43
2019-04-10T01:29:05.385Z,22.67
2019-04-10T01:31:35.761Z,22.93
2019-04-10T01:34:07.313Z,22.53
2019-04-10T01:36:37.855Z,22.23
2019-04-10T01:39:10.498Z,21.73
2019-04-10T01:41:40.180Z,22.50
2019-04-10T01:44:11.122Z,22.20
2019-04-10T01:46:42.375Z,22.30
2019-04-10T01:49:13.495Z,22.47
2019-04-10T01:51:43.536Z,21.67
2019-04-10T01:54:13.890Z,23.43
2019-04-10T01:56:43.861Z,21.73
2019-04-10T01:59:14.754Z,22.57
2019-04-10T02:01:52.589Z,24.00
2019-04-10T02:04:22.776Z,23.33
2019-04-10T02:06:52.460Z,21.83
2019-04-10T02:09:23.428Z,23.93
2019-04-10T02:11:54.376Z,24.77
2019-04-10T02:14:24.532Z,23.27
2019-04-10T02:16:54.917Z,23.50
2019-04-10T02:19:24.608Z,24.30
2019-04-10T02:21:54.827Z,24.13
2019-04-10T02:24:25.269Z,23.27
2019-04-10T02:26:56.036Z,24.57
2019-04-10T02:29:26.482Z,23.60
2019-04-10T02:31:57.351Z,23.67
2019-04-10T02:34:28.315Z,23.87
2019-04-10T02:36:58.634Z,24.13
2019-04-10T02:39:36.194Z,24.40
2019-04-10T02:42:00.511Z,25.77
2019-04-10T02:44:31.143Z,24.80
2019-04-10T02:47:02.088Z,23.70
2019-04-10T02:49:32.761Z,23.40
2019-04-10T02:52:02.453Z,23.47
2019-04-10T02:54:33.572Z,24.13
2019-04-10T02:57:05.452Z,23.70
2019-04-10T02:59:37.331Z,23.27
2019-04-10T03:02:08.560Z,23.73
2019-04-10T03:04:40.368Z,23.43
2019-04-10T03:07:11.591Z,25.47
2019-04-10T03:09:56.285Z,24.80
2019-04-10T03:12:14.606Z,26.30
2019-04-10T03:14:47.493Z,25.13
2019-04-10T03:17:17.718Z,26.97
2019-04-10T03:19:47.380Z,25.30
2019-04-10T03:22:16.975Z,25.43
2019-04-10T03:24:47.209Z,26.43
2019-04-10T03:27:16.902Z,26.07
2019-04-10T03:29:47.135Z,27.43
2019-04-10T03:32:54.517Z,26.83
2019-04-10T03:35:32.722Z,25.70
2019-04-10T03:38:03.008Z,25.83
2019-04-10T03:40:33.438Z,26.47
2019-04-10T03:43:03.829Z,27.50
2019-04-10T03:45:34.560Z,25.77
2019-04-10T03:48:05.382Z,26.43
2019-04-10T03:50:36.215Z,25.73
2019-04-10T03:53:07.528Z,26.43
2019-04-10T03:55:37.987Z,25.47
2019-04-10T03:58:09.288Z,26.27
2019-04-10T04:00:40.430Z,24.83
2019-04-10T04:03:14.700Z,25.30
2019-04-10T04:05:45.063Z,26.13
2019-04-10T04:08:15.423Z,24.80
2019-04-10T04:10:45.813Z,24.87
2019-04-10T04:13:16.168Z,23.73
2019-04-10T04:15:48.434Z,24.50
2019-04-10T04:18:19.267Z,25.57
2019-04-10T04:20:50.898Z,25.13
2019-04-10T04:23:21.584Z,23.47
2019-04-10T04:25:52.103Z,24.67
2019-04-10T04:28:23.415Z,25.07
2019-04-10T04:30:53.859Z,23.83
2019-04-10T04:33:24.365Z,23.57
2019-04-10T04:35:55.128Z,23.47
2019-04-10T04:38:25.697Z,24.53
2019-04-10T04:40:56.074Z,24.70
2019-04-10T04:43:26.443Z,24.10
2019-04-10T04:45:56.163Z,24.27
2019-04-10T04:48:26.443Z,23.50
2019-04-10T04:50:56.805Z,23.57
2019-04-10T04:53:26.492Z,24.30
2019-04-10T04:55:57.554Z,24.73
2019-04-10T04:58:28.259Z,25.87
2019-04-10T05:00:58.736Z,24.27
2019-04-10T05:03:29.236Z,24.47
2019-04-10T05:06:00.377Z,24.90
2019-04-10T05:08:30.905Z,25.97
2019-04-10T05:11:02.195Z,26.90
2019-04-10T05:13:32.783Z,24.83
2019-04-10T05:16:03.151Z,26.20
2019-04-10T05:18:33.520Z,27.30
2019-04-10T05:21:05.091Z,26.67
2019-04-10T05:23:35.653Z,28.50
2019-04-10T05:26:06.160Z,26.70
2019-04-10T05:28:36.572Z,26.33
2019-04-10T05:31:06.766Z,26.20
2019-04-10T05:33:37.251Z,25.80
2019-04-10T05:36:07.684Z,27.07
2019-04-10T05:38:38.162Z,25.67
2019-04-10T05:41:09.141Z,26.83
2019-04-10T05:43:39.016Z,25.80
2019-04-10T05:46:09.263Z,26.23
2019-04-10T05:48:39.844Z,26.10
2019-04-10T05:51:10.453Z,23.90
2019-04-10T05:53:40.933Z,24.00
2019-04-10T05:56:10.614Z,24.73
2019-04-10T05:58:40.931Z,23.37
2019-04-10T06:01:11.534Z,21.37
2019-04-10T06:03:42.851Z,21.83
2019-04-10T06:06:14.462Z,20.57
2019-04-10T06:08:44.847Z,21.17
2019-04-10T06:11:15.222Z,19.43
2019-04-10T06:13:45.220Z,18.90
2019-04-10T06:16:15.467Z,18.93
2019-04-10T06:18:45.840Z,19.87
2019-04-10T06:21:16.271Z,18.80
2019-04-10T06:23:47.601Z,18.57
2019-04-10T06:26:17.548Z,18.67
2019-04-10T06:28:48.529Z,17.47
2019-04-10T06:31:18.691Z,18.93
2019-04-10T06:33:48.593Z,17.70
2019-04-10T06:36:19.502Z,17.37
2019-04-10T06:38:49.323Z,15.47
2019-04-10T06:41:19.253Z,16.37
2019-04-10T06:43:49.727Z,17.03
2019-04-10T06:46:20.168Z,14.33
2019-04-10T06:48:50.071Z,15.63
2019-04-10T06:51:21.690Z,15.37
2019-04-10T06:54:01.739Z,14.73
2019-04-10T06:56:23.552Z,14.37
2019-04-10T06:58:53.260Z,14.33
2019-04-10T07:01:24.509Z,14.50
2019-04-10T07:04:02.269Z,14.43
2019-04-10T07:06:44.624Z,13.80
2019-04-10T07:08:59.083Z,13.67
2019-04-10T07:11:32.156Z,12.50
2019-04-10T07:14:01.587Z,14.10
2019-04-10T07:16:34.022Z,13.17
2019-04-10T07:19:06.948Z,14.37
2019-04-10T07:21:37.605Z,13.67
2019-04-10T07:24:10.887Z,14.90
2019-04-10T07:26:43.159Z,15.20
2019-04-10T07:29:15.584Z,15.67
2019-04-10T07:31:42.635Z,16.13
2019-04-10T07:34:13.044Z,16.43
2019-04-10T07:36:44.909Z,15.80
2019-04-10T07:39:15.323Z,15.43
2019-04-10T07:41:45.656Z,16.53
2019-04-10T07:44:15.323Z,15.57
2019-04-10T07:46:44.915Z,16.40
2019-04-10T07:49:17.665Z,15.10
2019-04-10T07:51:48.483Z,13.50
2019-04-10T07:54:21.260Z,13.70
2019-04-10T07:56:51.254Z,12.70
2019-04-10T07:59:21.726Z,13.90
2019-04-10T08:01:52.128Z,13.13
2019-04-10T08:04:22.620Z,13.90
2019-04-10T08:06:54.319Z,13.67
2019-04-10T08:09:24.768Z,13.50
2019-04-10T08:11:54.506Z,13.47
2019-04-10T08:14:24.077Z,13.13
2019-04-10T08:16:55.309Z,14.10
2019-04-10T08:19:26.414Z,12.77
2019-04-10T08:21:57.000Z,13.73
2019-04-10T08:24:26.675Z,13.77
2019-04-10T08:26:57.034Z,13.27
2019-04-10T08:29:26.702Z,13.83
2019-04-10T08:31:56.955Z,12.23
2019-04-10T08:34:28.100Z,14.13
2019-04-10T08:36:57.896Z,13.13
2019-04-10T08:39:36.052Z,13.13
2019-04-10T08:41:58.711Z,13.30
2019-04-10T08:44:29.866Z,13.33
2019-04-10T08:47:00.191Z,12.30
2019-04-10T08:49:30.477Z,12.67
2019-04-10T08:52:01.360Z,12.60
2019-04-10T08:54:32.147Z,14.50
2019-04-10T08:57:03.278Z,13.53
2019-04-10T08:59:33.991Z,12.63
2019-04-10T09:02:04.239Z,12.27
2019-04-10T09:04:34.566Z,13.03
2019-04-10T09:07:05.696Z,12.07
2019-04-10T09:09:39.458Z,11.90
2019-04-10T09:12:09.400Z,12.87
2019-04-10T09:14:39.662Z,12.47
2019-04-10T09:17:11.104Z,13.23
2019-04-10T09:19:42.300Z,13.13
2019-04-10T09:22:12.099Z,13.57
2019-04-10T09:24:42.485Z,12.43
2019-04-10T09:27:13.082Z,13.17
2019-04-10T09:29:44.430Z,13.07
2019-04-10T09:32:14.771Z,12.10
2019-04-10T09:34:46.441Z,12.40
2019-04-10T09:37:15.742Z,12.47
2019-04-10T09:39:45.496Z,12.73
2019-04-10T09:42:15.779Z,12.73
2019-04-10T09:44:46.565Z,13.60
2019-04-10T09:47:16.468Z,13.03
2019-04-10T09:49:47.197Z,14.50
2019-04-10T09:52:18.710Z,12.77
2019-04-10T09:54:49.531Z,13.43
2019-04-10T09:57:20.139Z,14.67
2019-04-10T09:59:50.077Z,14.63
2019-04-10T10:02:19.801Z,13.40
2019-04-10T10:04:50.437Z,14.67
2019-04-10T10:07:20.867Z,14.17
2019-04-10T10:09:51.448Z,14.07
2019-04-10T10:12:21.931Z,14.07
2019-04-10T10:14:51.937Z,13.77
2019-04-10T10:17:22.444Z,13.70
2019-04-10T10:19:53.844Z,14.53
2019-04-10T10:22:23.708Z,13.40
2019-04-10T10:24:55.066Z,13.53
2019-04-10T10:27:26.800Z,12.30
2019-04-10T10:29:57.838Z,12.53
2019-04-10T10:32:28.934Z,12.27
2019-04-10T10:35:01.048Z,11.63
2019-04-10T10:37:31.232Z,13.90
2019-04-10T10:40:01.341Z,13.27
2019-04-10T10:42:31.905Z,12.57
2019-04-10T10:45:02.795Z,12.80
2019-04-10T10:47:33.268Z,13.30
2019-04-10T10:50:03.071Z,13.03
2019-04-10T10:52:33.363Z,12.93
2019-04-10T10:55:05.144Z,12.73
2019-04-10T10:57:37.588Z,12.00
2019-04-10T11:00:08.338Z,11.13
2019-04-10T11:02:39.452Z,12.93
2019-04-10T11:05:10.715Z,13.00
2019-04-10T11:07:40.615Z,13.10
2019-04-10T11:10:12.469Z,12.90
2019-04-10T11:12:42.470Z,12.50
2019-04-10T11:15:13.674Z,12.80
2019-04-10T11:17:44.708Z,12.17
2019-04-10T11:20:15.261Z,11.77
2019-04-10T11:22:44.986Z,12.13
2019-04-10T11:25:15.703Z,12.60
2019-04-10T11:27:45.498Z,11.17
2019-04-10T11:30:16.177Z,12.03
2019-04-10T11:32:46.290Z,11.73
2019-04-10T11:35:17.428Z,11.93
2019-04-10T11:37:50.016Z,11.17
2019-04-10T11:40:21.089Z,11.13
2019-04-10T11:42:51.493Z,10.83
2019-04-10T11:45:26.142Z,11.17
2019-04-10T11:47:56.482Z,11.20
2019-04-10T11:50:28.110Z,10.93
2019-04-10T11:53:00.359Z,10.27
2019-04-10T11:55:29.747Z,10.00
2019-04-10T11:58:00.060Z,11.03
2019-04-10T12:00:47.597Z,10.40
2019-04-10T12:03:12.747Z,10.53
2019-04-10T12:05:42.771Z,10.07
2019-04-10T12:08:42.183Z,10.33
2019-04-10T12:13:17.967Z,9.23
2019-04-10T12:15:48.493Z,9.53
2019-04-10T12:18:18.356Z,9.53
2019-04-10T12:20:51.458Z,9.90
2019-04-10T12:23:23.029Z,9.63
2019-04-10T12:25:53.593Z,8.80
2019-04-10T12:28:25.594Z,9.00
2019-04-10T12:30:55.474Z,10.13
2019-04-10T12:33:25.440Z,9.63
2019-04-10T12:35:55.983Z,8.60
2019-04-10T12:38:27.636Z,8.27
2019-04-10T12:40:59.023Z,9.13
2019-04-10T12:43:29.534Z,9.30
2019-04-10T12:46:00.257Z,8.60
2019-04-10T12:48:31.550Z,8.77
2019-04-10T12:51:02.018Z,8.77
2019-04-10T12:53:31.809Z,8.75
2019-04-10T12:56:02.183Z,9.07
2019-04-10T12:58:32.910Z,9.10
2019-04-10T13:01:03.010Z,8.57
2019-04-10T13:03:33.410Z,8.77
2019-04-10T13:06:03.155Z,8.37
2019-04-10T13:08:51.477Z,7.60
2019-04-10T13:11:04.681Z,8.37
2019-04-10T13:13:35.824Z,7.58
2019-04-10T13:16:09.821Z,7.80
2019-04-10T13:18:40.696Z,7.43
2019-04-10T13:21:10.466Z,7.87
2019-04-10T13:23:41.186Z,7.53
2019-04-10T13:26:10.940Z,7.43
2019-04-10T13:28:41.518Z,6.73
2019-04-10T13:31:11.194Z,7.40
2019-04-10T13:33:40.773Z,7.60
2019-04-10T13:36:11.383Z,7.60
2019-04-10T13:38:42.170Z,6.83
2019-04-10T13:41:12.296Z,7.43
2019-04-10T13:43:42.288Z,6.30
2019-04-10T13:46:12.969Z,6.90
2019-04-10T13:48:42.807Z,6.30
2019-04-10T13:51:14.963Z,5.97
2019-04-10T13:53:46.027Z,6.00
2019-04-10T13:56:16.991Z,5.77
2019-04-10T13:58:47.471Z,6.30
2019-04-10T14:01:27.842Z,5.67
2019-04-10T14:03:58.710Z,5.43
2019-04-10T14:06:29.705Z,4.53
2019-04-10T14:09:17.832Z,5.30
2019-04-10T14:11:31.806Z,4.40
2019-04-10T14:14:02.429Z,4.33
2019-04-10T14:16:32.844Z,4.00
2019-04-10T14:19:03.410Z,4.40
2019-04-10T14:21:33.748Z,3.90
2019-04-10T14:24:05.229Z,3.73
2019-04-10T14:26:48.991Z,3.87
2019-04-10T14:29:16.924Z,3.80
2019-04-10T14:31:54.660Z,3.67
2019-04-10T14:34:26.105Z,3.70
2019-04-10T14:36:56.906Z,3.70
2019-04-10T14:39:27.226Z,3.10
2019-04-10T14:41:56.872Z,3.57
2019-04-10T14:44:28.428Z,3.00
2019-04-10T14:46:58.277Z,2.90
2019-04-10T14:49:29.293Z,3.53
2019-04-10T14:51:59.181Z,3.40
2019-04-10T14:54:30.095Z,3.23
2019-04-10T14:57:00.643Z,3.10
2019-04-10T14:59:30.312Z,3.30
2019-04-10T15:02:00.098Z,3.43
2019-04-10T15:04:30.604Z,3.60
2019-04-10T15:07:00.478Z,3.77
2019-04-10T15:09:30.722Z,3.33
2019-04-10T15:12:01.127Z,3.00
2019-04-10T15:14:33.648Z,3.27
2019-04-10T15:17:05.967Z,3.10
2019-04-10T15:19:34.440Z,3.57
2019-04-10T15:22:07.397Z,3.37
2019-04-10T15:24:37.286Z,3.40
2019-04-10T15:27:07.581Z,2.93
2019-04-10T15:29:38.612Z,2.83
2019-04-10T15:32:08.770Z,3.50
2019-04-10T15:34:39.603Z,3.33
2019-04-10T15:37:11.024Z,3.30
2019-04-10T15:39:43.156Z,2.83
2019-04-10T15:42:14.241Z,2.83
2019-04-10T15:44:46.568Z,3.17
2019-04-10T15:47:20.796Z,3.10
2019-04-10T15:49:47.510Z,3.23
2019-04-10T15:52:17.959Z,3.20
2019-04-10T15:54:47.911Z,2.97
2019-04-10T15:57:18.496Z,3.00
2019-04-10T15:59:48.370Z,3.23
2019-04-10T16:02:19.575Z,3.37
2019-04-10T16:04:49.386Z,3.30
2019-04-10T16:07:22.527Z,2.90
2019-04-10T16:09:56.294Z,2.80
2019-04-10T16:12:27.340Z,2.70
2019-04-10T16:14:58.136Z,3.00
2019-04-10T16:17:52.819Z,2.90
2019-04-10T16:20:30.377Z,2.53
2019-04-10T16:23:21.920Z,2.53
2019-04-10T16:25:54.481Z,3.10
2019-04-10T16:28:24.387Z,3.07
2019-04-10T16:30:55.112Z,3.53
2019-04-10T16:33:25.422Z,2.83
2019-04-10T16:35:56.880Z,3.10
2019-04-10T16:38:26.886Z,2.87
2019-04-10T16:40:58.173Z,2.77
2019-04-10T16:43:28.835Z,3.00
2019-04-10T16:45:59.456Z,2.77
2019-04-10T16:48:29.852Z,2.87
2019-04-10T16:50:59.743Z,2.70
2019-04-10T16:53:29.951Z,3.00
2019-04-10T16:55:59.710Z,4.07
2019-04-10T16:58:29.980Z,2.90
2019-04-10T17:00:59.775Z,2.57
2019-04-10T17:03:30.113Z,2.27
2019-04-10T17:06:02.456Z,3.03
2019-04-10T17:08:32.220Z,3.00
2019-04-10T17:11:03.359Z,2.90
2019-04-10T17:13:33.180Z,2.80
2019-04-10T17:16:02.807Z,2.10
2019-04-10T17:18:33.172Z,3.00
2019-04-10T17:21:02.972Z,2.90
2019-04-10T17:23:32.707Z,2.85
2019-04-10T17:26:02.479Z,2.17
2019-04-10T17:28:34.443Z,2.87
2019-04-10T17:31:07.830Z,2.27
2019-04-10T17:33:39.629Z,3.03
2019-04-10T17:36:09.796Z,3.30
2019-04-10T17:38:40.509Z,2.97
2019-04-10T17:41:11.235Z,2.40
2019-04-10T17:43:41.837Z,2.83
2019-04-10T17:46:11.594Z,3.10
2019-04-10T17:48:42.114Z,3.02
2019-04-10T17:51:14.090Z,2.57
2019-04-10T17:53:45.382Z,2.80
2019-04-10T17:56:16.384Z,4.17
2019-04-10T17:58:46.079Z,3.80
2019-04-10T18:01:19.471Z,2.93
2019-04-10T18:03:54.826Z,3.30
2019-04-10T18:06:21.466Z,2.77
2019-04-10T18:08:51.827Z,2.97
2019-04-10T18:11:22.396Z,3.20
2019-04-10T18:13:53.053Z,3.10
2019-04-10T18:16:22.814Z,2.83
2019-04-10T18:18:53.852Z,2.90
2019-04-10T18:21:24.576Z,2.70
2019-04-10T18:23:55.782Z,2.77
2019-04-10T18:26:27.740Z,2.67
2019-04-10T18:28:59.450Z,2.73
2019-04-10T18:31:29.707Z,4.13
2019-04-10T18:33:59.356Z,3.07
2019-04-10T18:36:29.886Z,3.27
2019-04-10T18:38:59.711Z,3.47
2019-04-10T18:41:30.024Z,4.70
2019-04-10T18:44:00.503Z,6.10
2019-04-10T18:46:31.218Z,4.50
2019-04-10T18:49:01.712Z,3.70
2019-04-10T18:51:32.227Z,3.30
2019-04-10T18:54:03.826Z,3.10
2019-04-10T18:56:33.627Z,3.17
2019-04-10T18:59:18.960Z,2.83
2019-04-10T19:02:07.599Z,3.07
2019-04-10T19:04:59.596Z,2.75
2019-04-10T19:07:32.308Z,2.27
2019-04-10T19:10:02.635Z,2.47
2019-04-10T19:12:34.814Z,3.12
2019-04-10T19:15:06.546Z,3.10
2019-04-10T19:17:37.142Z,2.97
2019-04-10T19:20:07.710Z,2.80
2019-04-10T19:22:38.871Z,2.83
2019-04-10T19:25:08.876Z,3.60
2019-04-10T19:27:40.145Z,3.00
2019-04-10T19:30:35.397Z,3.60
2019-04-10T19:33:07.887Z,2.63
2019-04-10T19:35:37.691Z,2.37
2019-04-10T19:38:07.425Z,2.77
2019-04-10T19:40:38.684Z,3.10
2019-04-10T19:43:08.445Z,3.40
2019-04-10T19:45:38.066Z,3.13
2019-04-10T19:48:08.933Z,3.67
2019-04-10T19:50:38.587Z,2.73
2019-04-10T19:53:09.047Z,2.93
2019-04-10T19:55:39.985Z,3.00
2019-04-10T19:58:10.764Z,2.43
2019-04-10T20:00:40.973Z,2.53
2019-04-10T20:03:11.185Z,2.60
2019-04-10T20:05:41.497Z,2.87
2019-04-10T20:08:13.106Z,2.40
2019-04-10T20:10:43.724Z,2.93
2019-04-10T20:13:14.460Z,2.50
2019-04-10T20:15:44.992Z,2.10
2019-04-10T20:18:15.315Z,2.63
2019-04-10T20:20:45.730Z,2.50
2019-04-10T20:23:16.165Z,3.17
2019-04-10T20:25:46.350Z,2.72
2019-04-10T20:28:16.686Z,2.30
2019-04-10T20:30:46.358Z,2.90
2019-04-10T20:33:16.651Z,2.87
2019-04-10T20:35:46.709Z,2.30
2019-04-10T20:38:17.549Z,2.10
2019-04-10T20:40:47.263Z,2.20
2019-04-10T20:43:16.930Z,2.50
2019-04-10T20:45:47.519Z,2.37
2019-04-10T20:48:17.263Z,2.40
2019-04-10T20:50:48.051Z,2.50
2019-04-10T20:53:17.958Z,2.60
2019-04-10T20:55:48.196Z,3.00
2019-04-10T20:58:20.164Z,2.40
2019-04-10T21:00:51.416Z,2.20
2019-04-10T21:03:22.923Z,2.43
2019-04-10T21:05:52.865Z,2.97
2019-04-10T21:08:22.390Z,3.03
2019-04-10T21:10:52.004Z,2.97
2019-04-10T21:13:22.086Z,3.50
2019-04-10T21:15:53.018Z,3.37
2019-04-10T21:18:23.640Z,3.77
2019-04-10T21:20:53.985Z,2.93
2019-04-10T21:23:23.879Z,3.27
2019-04-10T21:25:55.293Z,2.77
2019-04-10T21:28:25.974Z,3.40
2019-04-10T21:31:05.447Z,3.07
2019-04-10T21:34:01.274Z,2.97
2019-04-10T21:36:31.555Z,2.50
2019-04-10T21:39:01.345Z,3.87
2019-04-10T21:41:31.154Z,2.70
2019-04-10T21:44:02.295Z,3.07
2019-04-10T21:46:32.866Z,2.50
2019-04-10T21:49:03.642Z,2.60
2019-04-10T21:51:34.922Z,2.90
2019-04-10T21:54:06.386Z,2.50
2019-04-10T21:56:37.311Z,2.40
2019-04-10T21:59:08.965Z,2.93
2019-04-10T22:01:40.263Z,3.10
2019-04-10T22:04:10.809Z,2.33
2019-04-10T22:06:51.537Z,2.30
2019-04-10T22:09:39.633Z,2.90
2019-04-10T22:12:25.929Z,2.83
2019-04-10T22:14:53.123Z,2.67
2019-04-10T22:17:22.875Z,2.80
2019-04-10T22:19:54.932Z,3.07
2019-04-10T22:22:26.596Z,2.87
2019-04-10T22:24:56.944Z,2.57
2019-04-10T22:27:27.522Z,3.20
2019-04-10T22:29:58.440Z,2.53
2019-04-10T22:32:29.103Z,2.77
2019-04-10T22:35:01.442Z,2.57
2019-04-10T22:37:31.908Z,2.57
2019-04-10T22:40:02.382Z,3.53
2019-04-10T22:42:40.054Z,3.50
2019-04-10T22:45:06.708Z,2.83
2019-04-10T22:47:37.072Z,3.37
2019-04-10T22:50:08.583Z,3.33
2019-04-10T22:52:38.444Z,2.63
2019-04-10T22:55:09.503Z,2.53
2019-04-10T22:57:40.923Z,3.03
2019-04-10T23:00:13.870Z,3.67
2019-04-10T23:02:47.127Z,2.67
2019-04-10T23:05:18.374Z,2.70
2019-04-10T23:07:49.224Z,3.13
2019-04-10T23:10:19.734Z,2.80
2019-04-10T23:12:58.916Z,2.60
2019-04-10T23:15:23.063Z,3.37
2019-04-10T23:17:53.513Z,4.17
2019-04-10T23:20:25.892Z,3.50
2019-04-10T23:22:56.745Z,3.60
2019-04-10T23:25:27.229Z,3.97
2019-04-10T23:27:58.793Z,3.40
2019-04-10T23:30:29.421Z,3.50
2019-04-10T23:32:59.652Z,4.23
2019-04-10T23:35:29.563Z,3.33
2019-04-10T23:38:00.099Z,4.03
2019-04-10T23:40:30.544Z,3.87
2019-04-10T23:43:07.545Z,4.13
2019-04-10T23:45:31.631Z,3.47
2019-04-10T23:48:01.947Z,4.40
2019-04-10T23:50:36.432Z,3.57
2019-04-10T23:53:07.163Z,3.80
2019-04-10T23:55:37.837Z,3.87
2019-04-10T23:58:09.402Z,3.63
